createdAt,value
2018-07-05T00:01:09.311Z,95379.02
2018-07-05T00:03:49.113Z,95378.69
2018-07-05T00:06:28.883Z,95373.81
2018-07-05T00:09:08.542Z,95369.48
2018-07-05T00:11:48.435Z,95366.28
2018-07-05T00:14:28.226Z,95373.91
2018-07-05T00:17:07.943Z,95375.06
2018-07-05T00:19:47.742Z,95371.23
2018-07-05T00:22:27.678Z,95370.95
2018-07-05T00:25:07.338Z,95376.98
2018-07-05T00:27:47.059Z,95384.55
2018-07-05T00:30:26.754Z,95387.75
2018-07-05T00:33:06.436Z,95385.58
2018-07-05T00:35:46.311Z,95378.23
2018-07-05T00:38:26.030Z,95375.11
2018-07-05T00:41:05.830Z,95366.27
2018-07-05T00:43:45.613Z,95380.02
2018-07-05T00:46:25.263Z,95373.34
2018-07-05T00:49:05.183Z,95373.30
2018-07-05T00:51:44.913Z,95372.86
2018-07-05T00:54:24.570Z,95375.28
2018-07-05T00:57:04.175Z,95370.81
2018-07-05T00:59:43.856Z,95371.14
2018-07-05T01:02:23.646Z,95369.34
2018-07-05T01:05:03.427Z,95367.21
2018-07-05T01:07:43.169Z,95365.11
2018-07-05T01:10:22.896Z,95366.36
2018-07-05T01:13:02.748Z,95359.97
2018-07-05T01:15:42.551Z,95355.21
2018-07-05T01:18:22.219Z,95357.28
2018-07-05T01:21:02.047Z,95357.94
2018-07-05T01:23:41.886Z,95359.49
2018-07-05T01:26:21.454Z,95356.39
2018-07-05T01:29:01.425Z,95370.27
2018-07-05T01:31:41.163Z,95362.03
2018-07-05T01:34:20.878Z,95360.27
2018-07-05T01:37:00.707Z,95373.35
2018-07-05T01:39:40.294Z,95369.19
2018-07-05T01:42:20.086Z,95370.56
2018-07-05T01:44:59.841Z,95368.48
2018-07-05T01:47:39.521Z,95366.99
2018-07-05T01:50:19.225Z,95376.14
2018-07-05T01:52:59.018Z,95373.02
2018-07-05T01:55:38.803Z,95375.13
2018-07-05T01:58:18.495Z,95375.98
2018-07-05T02:00:58.337Z,95370.81
2018-07-05T02:03:38.129Z,95375.67
2018-07-05T02:06:17.763Z,95379.19
2018-07-05T02:08:57.422Z,95372.32
2018-07-05T02:11:37.087Z,95367.55
2018-07-05T02:14:16.676Z,95368.61
2018-07-05T02:16:56.355Z,95366.53
2018-07-05T02:19:36.168Z,95366.63
2018-07-05T02:22:15.932Z,95367.56
2018-07-05T02:24:55.651Z,95364.91
2018-07-05T02:27:35.384Z,95366.53
2018-07-05T02:30:15.275Z,95372.48
2018-07-05T02:32:55.039Z,95375.20
2018-07-05T02:35:34.755Z,95379.89
2018-07-05T02:38:19.851Z,95380.44
2018-07-05T02:40:59.551Z,95400.17
2018-07-05T02:43:39.314Z,95399.28
2018-07-05T02:46:19.183Z,95391.88
2018-07-05T02:48:58.827Z,95402.86
2018-07-05T02:51:38.862Z,95392.95
2018-07-05T02:54:18.954Z,95389.16
2018-07-05T02:56:58.827Z,95386.31
2018-07-05T02:59:38.841Z,95393.67
2018-07-05T03:02:18.936Z,95390.63
2018-07-05T03:04:59.295Z,95390.60
2018-07-05T03:07:38.932Z,95386.52
2018-07-05T03:10:18.545Z,95386.77
2018-07-05T03:12:58.202Z,95387.47
2018-07-05T03:15:37.884Z,95384.73
2018-07-05T03:18:17.642Z,95388.58
2018-07-05T03:20:57.339Z,95385.64
2018-07-05T03:23:37.221Z,95387.27
2018-07-05T03:26:17.107Z,95388.80
2018-07-05T03:28:56.798Z,95396.33
2018-07-05T03:31:36.711Z,95408.15
2018-07-05T03:34:16.380Z,95396.52
2018-07-05T03:36:56.095Z,95403.50
2018-07-05T03:39:35.810Z,95410.45
2018-07-05T03:42:15.514Z,95406.31
2018-07-05T03:44:55.346Z,95404.67
2018-07-05T03:47:35.293Z,95405.55
2018-07-05T03:50:15.071Z,95408.86
2018-07-05T03:52:54.805Z,95412.55
2018-07-05T03:55:34.523Z,95411.28
2018-07-05T03:58:14.315Z,95410.63
2018-07-05T04:00:54.037Z,95405.34
2018-07-05T04:03:33.896Z,95402.12
2018-07-05T04:06:13.612Z,95407.34
2018-07-05T04:08:53.284Z,95408.12
2018-07-05T04:11:33.103Z,95407.98
2018-07-05T04:14:13.045Z,95408.67
2018-07-05T04:16:54.600Z,95410.44
2018-07-05T04:19:34.330Z,95416.14
2018-07-05T04:22:14.075Z,95415.89
2018-07-05T04:24:53.704Z,95416.48
2018-07-05T04:27:33.523Z,95414.99
2018-07-05T04:30:13.169Z,95415.40
2018-07-05T04:32:53.154Z,95415.45
2018-07-05T04:35:32.875Z,95416.41
2018-07-05T04:38:12.667Z,95420.52
2018-07-05T04:40:52.331Z,95420.36
2018-07-05T04:43:32.130Z,95426.50
2018-07-05T04:46:11.866Z,95430.83
2018-07-05T04:48:51.606Z,95437.61
2018-07-05T04:51:31.478Z,95437.40
2018-07-05T04:54:11.262Z,95440.19
2018-07-05T04:56:51.315Z,95442.53
2018-07-05T04:59:31.151Z,95444.57
2018-07-05T05:02:10.840Z,95442.69
2018-07-05T05:04:50.650Z,95437.45
2018-07-05T05:07:30.448Z,95439.95
2018-07-05T05:10:10.399Z,95438.88
2018-07-05T05:12:50.283Z,95436.22
2018-07-05T05:15:30.111Z,95436.86
2018-07-05T05:18:09.891Z,95430.52
2018-07-05T05:20:50.196Z,95432.36
2018-07-05T05:23:30.121Z,95422.08
2018-07-05T05:26:09.810Z,95430.08
2018-07-05T05:28:49.530Z,95429.69
2018-07-05T05:31:29.273Z,95425.00
2018-07-05T05:34:09.067Z,95425.19
2018-07-05T05:36:48.927Z,95425.00
2018-07-05T05:39:28.705Z,95424.80
2018-07-05T05:42:08.573Z,95425.79
2018-07-05T05:44:48.403Z,95425.97
2018-07-05T05:47:28.143Z,95425.42
2018-07-05T05:50:07.966Z,95433.05
2018-07-05T05:52:47.707Z,95439.88
2018-07-05T05:55:27.595Z,95435.19
2018-07-05T05:58:07.239Z,95441.08
2018-07-05T06:00:47.058Z,95435.98
2018-07-05T06:03:26.850Z,95436.77
2018-07-05T06:06:06.890Z,95439.89
2018-07-05T06:08:46.585Z,95443.02
2018-07-05T06:11:26.319Z,95442.04
2018-07-05T06:14:06.340Z,95440.27
2018-07-05T06:16:46.159Z,95445.75
2018-07-05T06:19:26.030Z,95444.01
2018-07-05T06:22:05.692Z,95437.33
2018-07-05T06:24:45.447Z,95447.14
2018-07-05T06:27:25.348Z,95434.98
2018-07-05T06:30:05.392Z,95437.50
2018-07-05T06:32:45.182Z,95433.73
2018-07-05T06:35:25.012Z,95433.94
2018-07-05T06:38:04.734Z,95429.86
2018-07-05T06:40:44.410Z,95426.70
2018-07-05T06:43:24.124Z,95424.02
2018-07-05T06:46:04.104Z,95422.86
2018-07-05T06:48:43.873Z,95425.19
2018-07-05T06:51:23.715Z,95420.83
2018-07-05T06:54:03.495Z,95416.69
2018-07-05T06:56:43.190Z,95414.33
2018-07-05T06:59:22.813Z,95415.73
2018-07-05T07:02:02.550Z,95417.25
2018-07-05T07:04:42.323Z,95421.02
2018-07-05T07:07:22.018Z,95417.27
2018-07-05T07:10:01.962Z,95408.56
2018-07-05T07:12:41.839Z,95417.56
2018-07-05T07:15:21.592Z,95414.70
2018-07-05T07:18:01.317Z,95415.23
2018-07-05T07:20:41.200Z,95416.85
2018-07-05T07:23:20.962Z,95412.17
2018-07-05T07:26:00.694Z,95407.66
2018-07-05T07:28:40.384Z,95413.09
2018-07-05T07:31:20.117Z,95410.06
2018-07-05T07:33:59.978Z,95405.95
2018-07-05T07:36:39.906Z,95408.38
2018-07-05T07:39:19.706Z,95413.75
2018-07-05T07:41:50.470Z,95410.74
2018-07-05T07:44:19.367Z,95412.74
2018-07-05T07:46:47.600Z,95415.04
2018-07-05T07:49:15.473Z,95412.11
2018-07-05T07:51:43.080Z,95278.05
2018-07-05T07:54:10.442Z,95403.20
2018-07-05T07:56:37.830Z,95408.81
2018-07-05T07:59:05.180Z,95398.31
2018-07-05T08:01:32.578Z,95397.56
2018-07-05T08:03:59.943Z,95395.80
2018-07-05T08:06:27.335Z,95399.48
2018-07-05T08:08:54.749Z,95390.44
2018-07-05T08:11:22.399Z,95393.56
2018-07-05T08:13:50.631Z,95392.91
2018-07-05T08:16:17.990Z,95386.59
2018-07-05T08:18:45.358Z,95400.48
2018-07-05T08:21:13.076Z,95401.03
2018-07-05T08:23:40.451Z,95395.45
2018-07-05T08:26:08.326Z,95402.63
2018-07-05T08:28:35.939Z,95394.52
2018-07-05T08:31:03.297Z,95400.20
2018-07-05T08:33:30.684Z,95394.50
2018-07-05T08:35:58.350Z,95385.52
2018-07-05T08:38:26.179Z,95386.56
2018-07-05T08:40:53.555Z,95387.39
2018-07-05T08:43:20.918Z,95386.73
2018-07-05T08:45:48.319Z,95370.67
2018-07-05T08:48:15.674Z,95387.22
2018-07-05T08:50:43.384Z,95382.39
2018-07-05T08:53:10.783Z,95379.65
2018-07-05T08:55:38.180Z,95370.49
2018-07-05T08:58:05.582Z,95362.53
2018-07-05T09:00:32.961Z,95366.15
2018-07-05T09:03:00.565Z,95366.73
2018-07-05T09:05:27.976Z,95357.91
2018-07-05T09:07:55.349Z,95358.81
2018-07-05T09:10:23.062Z,95356.08
2018-07-05T09:12:50.434Z,95361.11
2018-07-05T09:15:17.916Z,95352.58
2018-07-05T09:17:45.492Z,95348.66
2018-07-05T09:20:12.824Z,95350.89
2018-07-05T09:22:40.256Z,95359.67
2018-07-05T09:25:07.627Z,95345.63
2018-07-05T09:27:34.998Z,95349.72
2018-07-05T09:30:02.375Z,95351.72
2018-07-05T09:32:29.750Z,95352.31
2018-07-05T09:34:57.160Z,95343.67
2018-07-05T09:37:24.588Z,95342.56
2018-07-05T09:39:51.942Z,95346.91
2018-07-05T09:42:19.293Z,95347.34
2018-07-05T09:44:46.661Z,95346.63
2018-07-05T09:47:14.054Z,95330.38
2018-07-05T09:49:41.459Z,95334.55
2018-07-05T09:52:08.821Z,95336.87
2018-07-05T09:54:36.555Z,95334.68
2018-07-05T09:57:03.932Z,95329.72
2018-07-05T09:59:31.338Z,95330.64
2018-07-05T10:01:58.717Z,95324.83
2018-07-05T10:04:26.087Z,95323.30
2018-07-05T10:06:53.474Z,95314.42
2018-07-05T10:09:20.830Z,95319.95
2018-07-05T10:11:48.272Z,95319.30
2018-07-05T10:14:15.651Z,95321.36
2018-07-05T10:16:43.265Z,95321.75
2018-07-05T10:19:10.826Z,95325.92
2018-07-05T10:21:38.211Z,95327.80
2018-07-05T10:24:06.049Z,95326.80
2018-07-05T10:26:33.443Z,95326.31
2018-07-05T10:29:13.576Z,95320.58
2018-07-05T10:31:53.205Z,95321.52
2018-07-05T10:34:20.644Z,95317.34
2018-07-05T10:36:48.016Z,95306.64
2018-07-05T10:39:15.391Z,95318.89
2018-07-05T10:41:55.161Z,95322.44
2018-07-05T10:44:34.939Z,95317.50
2018-07-05T10:47:14.733Z,95311.73
2018-07-05T10:49:55.200Z,95315.19
2018-07-05T10:52:34.940Z,95309.27
2018-07-05T10:55:14.963Z,95301.84
2018-07-05T10:57:54.740Z,95304.95
2018-07-05T11:00:34.647Z,95302.61
2018-07-05T11:03:14.557Z,95307.58
2018-07-05T11:05:54.426Z,95305.05
2018-07-05T11:08:34.264Z,95310.98
2018-07-05T11:11:14.012Z,95289.14
2018-07-05T11:13:53.818Z,95293.95
2018-07-05T11:16:33.657Z,95300.30
2018-07-05T11:19:13.482Z,95292.52
2018-07-05T11:21:53.549Z,95297.66
2018-07-05T11:24:33.542Z,95272.69
2018-07-05T11:27:13.297Z,95292.17
2018-07-05T11:29:53.027Z,95290.54
2018-07-05T11:32:32.857Z,95284.42
2018-07-05T11:35:12.563Z,95278.14
2018-07-05T11:37:52.217Z,95283.05
2018-07-05T11:40:32.239Z,95278.70
2018-07-05T11:43:11.899Z,95263.44
2018-07-05T11:45:51.665Z,95277.06
2018-07-05T11:48:31.437Z,95276.44
2018-07-05T11:51:11.148Z,95270.56
2018-07-05T11:53:51.051Z,95269.91
2018-07-05T11:56:30.782Z,95263.06
2018-07-05T11:59:10.594Z,95252.41
2018-07-05T12:01:50.439Z,95257.78
2018-07-05T12:04:30.164Z,95261.19
2018-07-05T12:07:10.309Z,95263.86
2018-07-05T12:09:49.950Z,95258.15
2018-07-05T12:12:29.804Z,95250.92
2018-07-05T12:15:09.730Z,95250.52
2018-07-05T12:17:49.464Z,95254.59
2018-07-05T12:20:29.157Z,95253.00
2018-07-05T12:23:08.912Z,95247.61
2018-07-05T12:25:48.715Z,95251.42
2018-07-05T12:28:28.484Z,95244.67
2018-07-05T12:31:08.426Z,95252.32
2018-07-05T12:33:47.963Z,95246.77
2018-07-05T12:36:27.866Z,95244.36
2018-07-05T12:39:07.583Z,95242.91
2018-07-05T12:41:48.479Z,95242.10
2018-07-05T12:44:28.313Z,95237.02
2018-07-05T12:47:08.151Z,95233.95
2018-07-05T12:49:47.838Z,95235.33
2018-07-05T12:52:27.529Z,95231.91
2018-07-05T12:55:07.287Z,95229.25
2018-07-05T12:57:47.257Z,95226.80
2018-07-05T13:00:27.083Z,95225.44
2018-07-05T13:03:06.725Z,95219.66
2018-07-05T13:05:46.411Z,95214.73
2018-07-05T13:08:26.181Z,95216.02
2018-07-05T13:11:05.997Z,95214.91
2018-07-05T13:13:45.732Z,95216.23
2018-07-05T13:16:25.494Z,95209.88
2018-07-05T13:19:05.131Z,95214.95
2018-07-05T13:21:44.784Z,95208.85
2018-07-05T13:24:24.554Z,95205.77
2018-07-05T13:27:04.455Z,95208.47
2018-07-05T13:29:44.338Z,95201.56
2018-07-05T13:32:24.251Z,95198.77
2018-07-05T13:35:03.979Z,95193.80
2018-07-05T13:37:43.674Z,95194.81
2018-07-05T13:40:23.556Z,95196.55
2018-07-05T13:43:03.338Z,95191.16
2018-07-05T13:45:43.262Z,95192.72
2018-07-05T13:48:23.052Z,95190.94
2018-07-05T13:51:02.864Z,95196.80
2018-07-05T13:53:42.585Z,95200.91
2018-07-05T13:56:22.260Z,95193.59
2018-07-05T13:59:02.024Z,95194.28
2018-07-05T14:01:42.068Z,95198.16
2018-07-05T14:04:21.896Z,95200.63
2018-07-05T14:07:01.695Z,95198.14
2018-07-05T14:09:41.467Z,95201.09
2018-07-05T14:12:21.480Z,95202.34
2018-07-05T14:15:01.148Z,95195.61
2018-07-05T14:17:41.073Z,95197.91
2018-07-05T14:20:20.709Z,95195.39
2018-07-05T14:23:00.379Z,95196.67
2018-07-05T14:25:41.264Z,95198.20
2018-07-05T14:28:20.947Z,95193.27
2018-07-05T14:31:00.787Z,95195.06
2018-07-05T14:33:40.816Z,95191.87
2018-07-05T14:36:20.663Z,95185.17
2018-07-05T14:39:00.492Z,95176.06
2018-07-05T14:41:40.335Z,95179.67
2018-07-05T14:44:19.956Z,95184.52
2018-07-05T14:46:59.845Z,95183.89
2018-07-05T14:49:41.338Z,95177.09
2018-07-05T14:52:21.201Z,95179.62
2018-07-05T14:55:00.955Z,95178.84
2018-07-05T14:57:40.674Z,95179.91
2018-07-05T15:00:20.449Z,95175.14
2018-07-05T15:03:00.357Z,95180.19
2018-07-05T15:05:40.141Z,95179.91
2018-07-05T15:08:19.965Z,95178.59
2018-07-05T15:10:59.757Z,95182.69
2018-07-05T15:13:39.467Z,95182.75
2018-07-05T15:16:19.442Z,95152.44
2018-07-05T15:18:59.710Z,95178.47
2018-07-05T15:21:39.602Z,95179.36
2018-07-05T15:24:19.993Z,95174.72
2018-07-05T15:26:59.779Z,95174.22
2018-07-05T15:29:39.461Z,95170.66
2018-07-05T15:32:19.174Z,95169.41
2018-07-05T15:34:59.018Z,95168.44
2018-07-05T15:37:38.783Z,95167.73
2018-07-05T15:40:18.435Z,95164.89
2018-07-05T15:42:58.218Z,95172.00
2018-07-05T15:45:38.068Z,95169.62
2018-07-05T15:48:18.105Z,95163.48
2018-07-05T15:50:57.845Z,95167.09
2018-07-05T15:53:37.655Z,95165.38
2018-07-05T15:56:17.506Z,95160.42
2018-07-05T15:58:57.123Z,95156.92
2018-07-05T16:01:37.746Z,95161.69
2018-07-05T16:04:17.570Z,95159.02
2018-07-05T16:06:57.569Z,95158.47
2018-07-05T16:09:37.398Z,95159.05
2018-07-05T16:12:17.167Z,95160.61
2018-07-05T16:14:56.926Z,95156.27
2018-07-05T16:17:36.677Z,95159.16
2018-07-05T16:20:16.551Z,95170.56
2018-07-05T16:22:56.408Z,95160.13
2018-07-05T16:25:36.313Z,95160.47
2018-07-05T16:28:15.996Z,95158.06
2018-07-05T16:30:55.804Z,95160.54
2018-07-05T16:33:35.694Z,95155.36
2018-07-05T16:36:15.473Z,95157.79
2018-07-05T16:38:55.240Z,95152.37
2018-07-05T16:41:35.512Z,95152.20
2018-07-05T16:44:15.191Z,95152.20
2018-07-05T16:46:56.023Z,95155.59
2018-07-05T16:49:35.993Z,95148.49
2018-07-05T16:52:15.934Z,95155.94
2018-07-05T16:54:55.700Z,95154.66
2018-07-05T16:57:35.436Z,95157.69
2018-07-05T17:00:15.301Z,95151.64
2018-07-05T17:02:55.210Z,95156.31
2018-07-05T17:05:35.068Z,95151.46
2018-07-05T17:08:15.023Z,95152.84
2018-07-05T17:10:54.916Z,95158.72
2018-07-05T17:13:37.066Z,95154.23
2018-07-05T17:16:16.950Z,95158.92
2018-07-05T17:19:05.329Z,95147.17
2018-07-05T17:21:52.813Z,95159.08
2018-07-05T17:24:56.506Z,95157.88
2018-07-05T17:27:36.323Z,95159.41
2018-07-05T17:30:16.122Z,95160.61
2018-07-05T17:36:00.353Z,95159.44
2018-07-05T17:38:40.131Z,95158.75
2018-07-05T17:41:19.883Z,95155.95
2018-07-05T17:43:59.824Z,95160.34
2018-07-05T17:46:39.525Z,95159.27
2018-07-05T17:49:19.516Z,95166.07
2018-07-05T17:51:59.390Z,95165.25
2018-07-05T17:54:39.205Z,95166.48
2018-07-05T17:57:19.003Z,95172.92
2018-07-05T17:59:58.744Z,95164.25
2018-07-05T18:02:38.469Z,95164.23
2018-07-05T18:05:18.391Z,95165.74
2018-07-05T18:07:58.253Z,95165.49
2018-07-05T18:10:38.047Z,95169.41
2018-07-05T18:13:17.824Z,95162.21
2018-07-05T18:15:57.596Z,95159.98
2018-07-05T18:18:37.354Z,95168.14
2018-07-05T18:21:17.076Z,95167.83
2018-07-05T18:23:57.132Z,95172.88
2018-07-05T18:26:36.904Z,95168.81
2018-07-05T18:29:17.022Z,95172.63
2018-07-05T18:31:57.146Z,95171.42
2018-07-05T18:34:37.032Z,95176.52
2018-07-05T18:37:16.850Z,95174.34
2018-07-05T18:39:56.519Z,95180.28
2018-07-05T18:42:36.192Z,95185.34
2018-07-05T18:45:15.955Z,95188.92
2018-07-05T18:48:32.539Z,95190.82
2018-07-05T18:51:12.226Z,95191.70
2018-07-05T18:53:52.011Z,95196.29
2018-07-05T18:56:31.820Z,95195.50
2018-07-05T18:59:12.300Z,95196.81
2018-07-05T19:01:51.941Z,95198.58
2018-07-05T19:04:31.776Z,95209.45
2018-07-05T19:07:11.485Z,95200.63
2018-07-05T19:09:51.343Z,95202.62
2018-07-05T19:12:31.103Z,95210.03
2018-07-05T19:15:10.931Z,95217.20
2018-07-05T19:17:50.585Z,95208.02
2018-07-05T19:20:30.550Z,95218.30
2018-07-05T19:23:10.340Z,95212.66
2018-07-05T19:25:50.296Z,95219.92
2018-07-05T19:28:30.051Z,95207.37
2018-07-05T19:31:10.096Z,95219.16
2018-07-05T19:33:49.868Z,95218.23
2018-07-05T19:36:29.626Z,95212.25
2018-07-05T19:39:09.272Z,95209.50
2018-07-05T19:41:48.996Z,95207.56
2018-07-05T19:44:28.663Z,95215.27
2018-07-05T19:47:08.581Z,95212.25
2018-07-05T19:49:48.408Z,95215.56
2018-07-05T19:52:28.332Z,95213.06
2018-07-05T19:55:07.993Z,95211.81
2018-07-05T19:57:47.960Z,95210.02
2018-07-05T20:00:27.659Z,95213.53
2018-07-05T20:03:07.404Z,95211.69
2018-07-05T20:05:47.107Z,95211.64
2018-07-05T20:08:26.689Z,95208.98
2018-07-05T20:11:06.610Z,95207.02
2018-07-05T20:13:46.466Z,95208.42
2018-07-05T20:16:26.129Z,95214.80
2018-07-05T20:19:05.832Z,95212.25
2018-07-05T20:21:45.602Z,95216.67
2018-07-05T20:24:25.633Z,95215.70
2018-07-05T20:27:05.533Z,95216.67
2018-07-05T20:29:45.267Z,95211.00
2018-07-05T20:32:24.884Z,95215.39
2018-07-05T20:35:04.851Z,95224.00
2018-07-05T20:37:44.540Z,95216.61
2018-07-05T20:40:24.318Z,95213.69
2018-07-05T20:43:03.978Z,95213.48
2018-07-05T20:45:44.668Z,95207.89
2018-07-05T20:48:24.403Z,95214.80
2018-07-05T20:51:04.118Z,95209.36
2018-07-05T20:53:43.839Z,95213.26
2018-07-05T20:56:23.662Z,95212.27
2018-07-05T20:59:03.329Z,95209.89
2018-07-05T21:01:43.048Z,95212.53
2018-07-05T21:04:22.834Z,95218.51
2018-07-05T21:07:02.530Z,95219.63
2018-07-05T21:09:42.371Z,95220.63
2018-07-05T21:12:22.145Z,95219.08
2018-07-05T21:15:01.847Z,95214.80
2018-07-05T21:17:41.665Z,95216.76
2018-07-05T21:20:21.652Z,95218.62
2018-07-05T21:23:01.363Z,95215.84
2018-07-05T21:25:41.032Z,95222.67
2018-07-05T21:28:20.781Z,95224.88
2018-07-05T21:31:00.570Z,95227.66
2018-07-05T21:33:40.208Z,95225.95
2018-07-05T21:36:19.929Z,95225.61
2018-07-05T21:38:59.919Z,95227.39
2018-07-05T21:41:39.731Z,95228.45
2018-07-05T21:44:19.631Z,95232.39
2018-07-05T21:46:59.696Z,95239.05
2018-07-05T21:49:39.497Z,95251.80
2018-07-05T21:52:19.230Z,95228.55
2018-07-05T21:54:58.916Z,95218.96
2018-07-05T21:57:38.735Z,95230.50
2018-07-05T22:00:18.608Z,95230.50
2018-07-05T22:02:58.439Z,95223.88
2018-07-05T22:05:38.055Z,95227.38
2018-07-05T22:08:17.815Z,95226.99
2018-07-05T22:10:57.494Z,95228.75
2018-07-05T22:13:37.214Z,95233.62
2018-07-05T22:16:16.844Z,95230.88
2018-07-05T22:19:02.005Z,95237.14
2018-07-05T22:21:46.822Z,95231.25
2018-07-05T22:24:31.859Z,95223.66
2018-07-05T22:27:16.735Z,95218.17
2018-07-05T22:30:01.897Z,95223.47
2018-07-05T22:32:41.502Z,95218.58
2018-07-05T22:35:23.454Z,95223.85
2018-07-05T22:38:03.183Z,95223.25
2018-07-05T22:40:42.833Z,95227.38
2018-07-05T22:43:22.603Z,95224.84
2018-07-05T22:46:02.335Z,95222.09
2018-07-05T22:48:42.185Z,95226.40
2018-07-05T22:51:22.050Z,95228.36
2018-07-05T22:54:01.728Z,95226.80
2018-07-05T22:56:41.224Z,95225.98
2018-07-05T22:59:20.971Z,95224.64
2018-07-05T23:02:00.851Z,95221.13
2018-07-05T23:04:40.566Z,95215.05
2018-07-05T23:07:20.569Z,95220.93
2018-07-05T23:10:00.277Z,95214.09
2018-07-05T23:12:39.979Z,95224.84
2018-07-05T23:15:19.765Z,95217.20
2018-07-05T23:17:59.603Z,95222.67
2018-07-05T23:20:39.187Z,95214.80
2018-07-05T23:23:18.915Z,95215.55
2018-07-05T23:25:58.689Z,95214.77
2018-07-05T23:28:38.328Z,95217.25
2018-07-05T23:31:18.264Z,95217.05
2018-07-05T23:33:58.007Z,95221.55
2018-07-05T23:36:37.762Z,95216.08
2018-07-05T23:39:17.455Z,95210.38
2018-07-05T23:41:57.179Z,95214.69
2018-07-05T23:44:36.827Z,95212.14
2018-07-05T23:47:16.539Z,95208.97
2018-07-05T23:49:56.287Z,95205.41
2018-07-05T23:52:35.986Z,95214.03
2018-07-05T23:55:15.766Z,95204.81
2018-07-05T23:57:55.546Z,95205.50
